createdAt,value
2019-03-26T00:01:25.493Z,23.43
2019-03-26T00:04:05.798Z,17.17
2019-03-26T00:06:28.084Z,21.70
2019-03-26T00:08:58.506Z,24.27
2019-03-26T00:11:28.963Z,22.47
2019-03-26T00:13:59.224Z,22.70
2019-03-26T00:16:29.586Z,28.70
2019-03-26T00:19:00.017Z,27.47
2019-03-26T00:21:30.515Z,19.07
2019-03-26T00:24:01.020Z,29.93
2019-03-26T00:26:31.462Z,20.77
2019-03-26T00:29:01.923Z,29.83
2019-03-26T00:31:32.388Z,20.63
2019-03-26T00:34:02.834Z,18.73
2019-03-26T00:36:33.384Z,24.97
2019-03-26T00:39:04.995Z,20.80
2019-03-26T00:41:35.441Z,22.93
2019-03-26T00:44:05.919Z,24.43
2019-03-26T00:46:36.351Z,22.53
2019-03-26T00:49:06.817Z,25.43
2019-03-26T00:51:37.267Z,25.93
2019-03-26T00:54:07.758Z,23.87
2019-03-26T00:56:38.173Z,20.77
2019-03-26T00:59:08.657Z,20.17
2019-03-26T01:01:39.256Z,18.13
2019-03-26T01:04:09.700Z,17.77
2019-03-26T01:06:40.165Z,23.33
2019-03-26T01:09:10.577Z,18.60
2019-03-26T01:11:41.029Z,16.17
2019-03-26T01:14:13.082Z,25.90
2019-03-26T01:16:43.511Z,19.07
2019-03-26T01:19:13.924Z,23.70
2019-03-26T01:21:44.343Z,17.47
2019-03-26T01:24:14.811Z,23.53
2019-03-26T01:26:45.213Z,17.63
2019-03-26T01:29:15.599Z,24.00
2019-03-26T01:31:46.002Z,19.43
2019-03-26T01:34:16.436Z,14.57
2019-03-26T01:36:46.875Z,23.83
2019-03-26T01:39:17.295Z,21.63
2019-03-26T01:41:47.705Z,19.87
2019-03-26T01:44:18.184Z,20.90
2019-03-26T01:47:42.461Z,18.57
2019-03-26T01:50:12.884Z,16.67
2019-03-26T01:52:43.323Z,17.73
2019-03-26T01:55:13.829Z,17.40
2019-03-26T01:57:44.350Z,20.37
2019-03-26T02:00:14.782Z,16.40
2019-03-26T02:02:45.197Z,18.23
2019-03-26T02:05:15.584Z,22.67
2019-03-26T02:07:46.036Z,21.03
2019-03-26T02:10:16.435Z,20.63
2019-03-26T02:12:48.588Z,17.93
2019-03-26T02:15:27.523Z,15.03
2019-03-26T02:17:58.078Z,13.63
2019-03-26T02:20:28.544Z,24.53
2019-03-26T02:22:58.933Z,22.93
2019-03-26T02:25:29.343Z,21.33
2019-03-26T02:27:59.715Z,24.43
2019-03-26T02:30:30.446Z,33.83
2019-03-26T02:33:01.021Z,30.50
2019-03-26T02:35:31.421Z,26.73
2019-03-26T02:38:01.843Z,31.10
2019-03-26T02:40:32.275Z,30.93
2019-03-26T02:43:02.669Z,30.27
2019-03-26T02:45:33.093Z,24.10
2019-03-26T02:48:03.473Z,29.50
2019-03-26T02:50:33.859Z,26.10
2019-03-26T02:53:08.414Z,17.53
2019-03-26T02:55:36.328Z,17.27
2019-03-26T02:58:06.755Z,22.10
2019-03-26T03:00:37.143Z,17.63
2019-03-26T03:03:07.584Z,17.80
2019-03-26T03:05:38.069Z,19.63
2019-03-26T03:08:08.485Z,22.47
2019-03-26T03:10:38.880Z,21.93
2019-03-26T03:13:09.414Z,21.97
2019-03-26T03:15:39.816Z,19.77
2019-03-26T03:18:10.247Z,22.33
2019-03-26T03:20:40.681Z,16.43
2019-03-26T03:23:11.108Z,15.03
2019-03-26T03:25:41.531Z,14.53
2019-03-26T03:28:11.930Z,21.17
2019-03-26T03:30:42.320Z,20.47
2019-03-26T03:33:12.711Z,13.03
2019-03-26T03:35:52.134Z,17.60
2019-03-26T03:38:15.203Z,14.93
2019-03-26T03:40:45.604Z,22.93
2019-03-26T03:43:15.982Z,16.63
2019-03-26T03:45:46.374Z,16.87
2019-03-26T03:48:16.777Z,13.77
2019-03-26T03:50:47.169Z,21.43
2019-03-26T03:53:17.913Z,22.60
2019-03-26T03:55:48.326Z,17.03
2019-03-26T03:58:18.821Z,19.80
2019-03-26T04:00:49.313Z,17.37
2019-03-26T04:03:19.766Z,21.77
2019-03-26T04:05:50.203Z,21.50
2019-03-26T04:08:20.597Z,19.63
2019-03-26T04:10:51.027Z,18.63
2019-03-26T04:13:21.456Z,14.53
2019-03-26T04:15:51.840Z,16.07
2019-03-26T04:18:22.219Z,23.33
2019-03-26T04:20:52.619Z,15.70
2019-03-26T04:23:23.030Z,28.00
2019-03-26T04:25:53.464Z,22.63
2019-03-26T04:28:23.821Z,20.13
2019-03-26T04:30:54.234Z,19.30
2019-03-26T04:33:24.660Z,23.47
2019-03-26T04:35:55.057Z,41.53
2019-03-26T04:38:25.508Z,43.93
2019-03-26T04:40:56.131Z,41.63
2019-03-26T04:43:26.543Z,39.80
2019-03-26T04:45:58.654Z,33.37
2019-03-26T04:48:29.021Z,29.10
2019-03-26T04:50:59.440Z,27.40
2019-03-26T04:53:34.121Z,23.00
2019-03-26T04:56:01.949Z,20.90
2019-03-26T04:58:32.348Z,19.00
2019-03-26T05:01:02.727Z,17.87
2019-03-26T05:03:33.239Z,23.13
2019-03-26T05:06:03.710Z,17.63
2019-03-26T05:08:34.117Z,14.77
2019-03-26T05:11:04.559Z,21.53
2019-03-26T05:13:34.984Z,21.77
2019-03-26T05:16:05.380Z,14.87
2019-03-26T05:18:35.771Z,19.87
2019-03-26T05:21:06.239Z,17.00
2019-03-26T05:23:36.701Z,17.00
2019-03-26T05:26:07.129Z,32.27
2019-03-26T05:28:37.537Z,15.77
2019-03-26T05:31:08.039Z,23.77
2019-03-26T05:33:38.539Z,15.80
2019-03-26T05:36:09.139Z,23.53
2019-03-26T05:38:42.509Z,26.70
2019-03-26T05:41:13.319Z,26.47
2019-03-26T05:43:43.725Z,23.00
2019-03-26T05:46:40.342Z,21.47
2019-03-26T05:49:06.762Z,23.23
2019-03-26T05:51:37.117Z,22.10
2019-03-26T05:54:07.392Z,21.20
2019-03-26T05:56:38.335Z,25.10
2019-03-26T05:59:08.704Z,29.10
2019-03-26T06:01:39.102Z,32.30
2019-03-26T06:04:09.589Z,32.77
2019-03-26T06:06:40.120Z,27.70
2019-03-26T06:09:10.524Z,37.70
2019-03-26T06:11:41.002Z,32.53
2019-03-26T06:14:11.483Z,32.53
2019-03-26T06:16:41.915Z,36.60
2019-03-26T06:19:13.906Z,31.43
2019-03-26T06:21:44.746Z,37.90
2019-03-26T06:24:15.234Z,42.20
2019-03-26T06:26:47.313Z,43.87
2019-03-26T06:29:17.761Z,51.47
2019-03-26T06:31:48.210Z,55.77
2019-03-26T06:34:18.844Z,48.17
2019-03-26T06:36:49.473Z,57.00
2019-03-26T06:39:22.412Z,43.13
2019-03-26T06:41:54.979Z,38.47
2019-03-26T06:44:25.492Z,43.67
2019-03-26T06:46:55.922Z,52.40
2019-03-26T06:49:26.403Z,42.07
2019-03-26T06:51:56.915Z,50.57
2019-03-26T06:54:27.419Z,47.23
2019-03-26T06:56:57.817Z,39.60
2019-03-26T06:59:28.487Z,43.23
2019-03-26T07:01:58.850Z,37.43
2019-03-26T07:04:29.357Z,40.90
2019-03-26T07:06:59.819Z,36.73
2019-03-26T07:09:30.297Z,39.53
2019-03-26T07:12:00.759Z,48.37
2019-03-26T07:14:31.235Z,47.87
2019-03-26T07:17:01.709Z,50.30
2019-03-26T07:19:32.067Z,53.73
2019-03-26T07:22:05.703Z,51.17
2019-03-26T07:24:36.381Z,50.57
2019-03-26T07:27:06.983Z,57.40
2019-03-26T07:29:40.268Z,55.87
2019-03-26T07:32:10.843Z,54.87
2019-03-26T07:34:43.595Z,58.30
2019-03-26T07:37:14.259Z,55.87
2019-03-26T07:39:44.899Z,50.77
2019-03-26T07:42:15.507Z,50.23
2019-03-26T07:44:47.757Z,48.37
2019-03-26T07:47:19.548Z,51.63
2019-03-26T07:49:49.969Z,47.60
2019-03-26T07:52:20.424Z,61.83
2019-03-26T07:54:52.359Z,68.27
2019-03-26T07:57:22.955Z,64.77
2019-03-26T07:59:53.424Z,69.57
2019-03-26T08:02:23.793Z,64.13
2019-03-26T08:04:54.470Z,64.80
2019-03-26T08:07:24.987Z,68.83
2019-03-26T08:09:55.426Z,65.30
2019-03-26T08:12:25.940Z,85.80
2019-03-26T08:14:56.541Z,71.00
2019-03-26T08:17:28.583Z,72.73
2019-03-26T08:20:12.825Z,75.83
2019-03-26T08:22:42.114Z,66.67
2019-03-26T08:25:15.964Z,69.13
2019-03-26T08:27:45.370Z,68.93
2019-03-26T08:30:15.945Z,64.17
2019-03-26T08:32:46.377Z,69.73
2019-03-26T08:35:16.772Z,70.87
2019-03-26T08:37:47.275Z,67.53
2019-03-26T08:40:17.706Z,73.80
2019-03-26T08:42:48.181Z,66.23
2019-03-26T08:45:18.731Z,67.30
2019-03-26T08:47:49.099Z,66.63
2019-03-26T08:50:19.495Z,67.87
2019-03-26T08:52:49.936Z,61.73
2019-03-26T08:55:20.384Z,58.73
2019-03-26T08:57:50.919Z,57.83
2019-03-26T09:00:21.337Z,65.90
2019-03-26T09:02:52.364Z,69.83
2019-03-26T09:05:22.873Z,89.50
2019-03-26T09:07:53.315Z,105.17
2019-03-26T09:10:23.718Z,96.00
2019-03-26T09:12:54.302Z,101.47
2019-03-26T09:15:24.903Z,119.00
2019-03-26T09:17:55.406Z,109.90
2019-03-26T09:20:25.830Z,114.27
2019-03-26T09:22:56.243Z,101.53
2019-03-26T09:25:26.689Z,108.00
2019-03-26T09:27:57.107Z,106.20
2019-03-26T09:30:27.564Z,102.10
2019-03-26T09:32:58.038Z,109.93
2019-03-26T09:35:30.021Z,89.30
2019-03-26T09:38:02.176Z,101.20
2019-03-26T09:40:32.600Z,100.33
2019-03-26T09:43:03.089Z,102.73
2019-03-26T09:45:33.536Z,98.27
2019-03-26T09:48:04.148Z,111.03
2019-03-26T09:50:38.801Z,100.97
2019-03-26T09:53:12.286Z,115.43
2019-03-26T09:55:42.927Z,121.97
2019-03-26T09:58:19.567Z,122.03
2019-03-26T10:00:56.652Z,120.57
2019-03-26T10:03:37.556Z,114.27
2019-03-26T10:06:22.889Z,99.57
2019-03-26T10:08:52.300Z,95.97
2019-03-26T10:11:17.629Z,99.17
2019-03-26T10:13:48.025Z,103.70
2019-03-26T10:16:18.459Z,97.57
2019-03-26T10:18:48.907Z,99.00
2019-03-26T10:21:19.351Z,90.07
2019-03-26T10:23:49.815Z,70.43
2019-03-26T10:26:20.271Z,71.53
2019-03-26T10:28:50.805Z,88.17
2019-03-26T10:31:21.221Z,76.60
2019-03-26T10:33:54.723Z,76.83
2019-03-26T10:36:25.131Z,78.63
2019-03-26T10:39:05.089Z,75.13
2019-03-26T10:41:30.579Z,90.67
2019-03-26T10:44:04.706Z,100.50
2019-03-26T10:46:35.115Z,116.23
2019-03-26T10:49:05.566Z,111.50
2019-03-26T10:51:36.050Z,113.93
2019-03-26T10:54:09.434Z,112.17
2019-03-26T10:56:43.133Z,116.17
2019-03-26T10:59:13.536Z,108.77
2019-03-26T11:01:45.496Z,111.13
2019-03-26T11:04:26.439Z,112.87
2019-03-26T11:06:56.860Z,105.97
2019-03-26T11:09:27.522Z,103.97
2019-03-26T11:11:57.978Z,105.33
2019-03-26T11:14:31.604Z,102.60
2019-03-26T11:17:00.627Z,101.07
2019-03-26T11:19:31.037Z,88.20
2019-03-26T11:22:03.006Z,69.50
2019-03-26T11:24:33.457Z,76.20
2019-03-26T11:27:04.134Z,71.87
2019-03-26T11:29:34.564Z,57.23
2019-03-26T11:32:05.438Z,62.63
2019-03-26T11:34:35.880Z,59.23
2019-03-26T11:37:06.316Z,55.17
2019-03-26T11:39:36.762Z,53.30
2019-03-26T11:42:07.206Z,50.63
2019-03-26T11:44:37.728Z,54.43
2019-03-26T11:47:08.262Z,53.00
2019-03-26T11:49:38.752Z,40.40
2019-03-26T11:52:09.205Z,43.23
2019-03-26T11:54:39.676Z,66.73
2019-03-26T11:57:10.180Z,45.20
2019-03-26T11:59:40.634Z,33.40
2019-03-26T12:02:11.988Z,33.67
2019-03-26T12:04:42.514Z,33.40
2019-03-26T12:07:12.956Z,32.87
2019-03-26T12:09:46.586Z,32.63
2019-03-26T12:12:15.558Z,32.13
2019-03-26T12:14:45.974Z,31.03
2019-03-26T12:17:16.381Z,36.77
2019-03-26T12:19:47.003Z,38.03
2019-03-26T12:22:18.994Z,39.00
2019-03-26T12:24:49.602Z,39.73
2019-03-26T12:27:20.146Z,27.80
2019-03-26T12:29:50.835Z,24.63
2019-03-26T12:32:21.315Z,26.80
2019-03-26T12:34:51.728Z,25.50
2019-03-26T12:37:22.153Z,24.87
2019-03-26T12:39:59.319Z,27.57
2019-03-26T12:42:24.787Z,25.90
2019-03-26T12:44:55.364Z,28.93
2019-03-26T12:47:25.925Z,30.47
2019-03-26T12:49:56.487Z,28.17
2019-03-26T12:52:26.976Z,34.80
2019-03-26T12:54:57.472Z,28.63
2019-03-26T12:57:28.001Z,30.80
2019-03-26T12:59:58.449Z,32.23
2019-03-26T13:02:31.200Z,36.50
2019-03-26T13:05:01.627Z,28.30
2019-03-26T13:07:32.095Z,27.87
2019-03-26T13:10:12.894Z,33.00
2019-03-26T13:12:34.835Z,28.80
2019-03-26T13:15:06.750Z,35.47
2019-03-26T13:17:37.023Z,31.93
2019-03-26T13:20:07.340Z,33.47
2019-03-26T13:22:37.525Z,38.03
2019-03-26T13:25:08.408Z,30.23
2019-03-26T13:27:38.672Z,28.83
2019-03-26T13:30:08.958Z,26.07
2019-03-26T13:32:39.337Z,27.53
2019-03-26T13:35:09.516Z,32.27
2019-03-26T13:37:39.751Z,30.83
2019-03-26T13:40:10.065Z,29.07
2019-03-26T13:42:40.361Z,31.23
2019-03-26T13:45:10.796Z,41.47
2019-03-26T13:47:41.065Z,29.33
2019-03-26T13:50:11.234Z,25.83
2019-03-26T13:52:41.622Z,28.93
2019-03-26T13:55:12.155Z,28.83
2019-03-26T13:57:42.448Z,22.23
2019-03-26T14:00:12.817Z,30.97
2019-03-26T14:02:43.119Z,27.37
2019-03-26T14:05:26.725Z,30.77
2019-03-26T14:07:58.611Z,25.57
2019-03-26T14:10:40.132Z,23.77
2019-03-26T14:13:00.993Z,24.80
2019-03-26T14:15:31.211Z,21.60
2019-03-26T14:18:01.532Z,27.60
2019-03-26T14:20:32.032Z,25.40
2019-03-26T14:23:02.356Z,34.57
2019-03-26T14:25:32.568Z,33.93
2019-03-26T14:28:02.787Z,33.03
2019-03-26T14:30:44.951Z,31.27
2019-03-26T14:33:15.260Z,26.20
2019-03-26T14:35:47.101Z,30.17
2019-03-26T14:38:17.441Z,26.33
2019-03-26T14:40:54.485Z,25.80
2019-03-26T14:43:19.718Z,27.43
2019-03-26T14:45:50.050Z,31.93
2019-03-26T14:48:20.261Z,33.53
2019-03-26T14:50:50.870Z,27.00
2019-03-26T14:53:21.286Z,29.60
2019-03-26T14:55:51.539Z,28.37
2019-03-26T14:58:21.933Z,23.27
2019-03-26T15:00:52.259Z,36.67
2019-03-26T15:03:22.577Z,36.30
2019-03-26T15:05:53.118Z,36.80
2019-03-26T15:08:23.816Z,42.47
2019-03-26T15:11:07.271Z,40.00
2019-03-26T15:13:28.398Z,40.03
2019-03-26T15:15:58.669Z,33.17
2019-03-26T15:18:29.148Z,28.63
2019-03-26T15:20:59.453Z,26.60
2019-03-26T15:23:29.715Z,25.50
2019-03-26T15:26:01.843Z,30.03
2019-03-26T15:28:32.279Z,28.50
2019-03-26T15:31:02.730Z,44.73
2019-03-26T15:33:33.870Z,35.87
2019-03-26T15:36:06.069Z,26.50
2019-03-26T15:38:36.467Z,25.17
2019-03-26T15:41:06.868Z,30.30
2019-03-26T15:43:37.266Z,31.93
2019-03-26T15:46:07.589Z,36.57
2019-03-26T15:48:37.879Z,37.20
2019-03-26T15:51:08.341Z,34.23
2019-03-26T15:53:38.717Z,33.93
2019-03-26T15:56:09.181Z,40.37
2019-03-26T15:58:39.741Z,41.23
2019-03-26T16:01:10.363Z,48.70
2019-03-26T16:03:40.912Z,50.27
2019-03-26T16:06:11.270Z,51.53
2019-03-26T16:08:41.487Z,43.77
2019-03-26T16:11:14.217Z,59.03
2019-03-26T16:13:44.684Z,53.83
2019-03-26T16:16:14.971Z,39.93
2019-03-26T16:18:45.226Z,44.90
2019-03-26T16:21:17.172Z,46.90
2019-03-26T16:23:50.007Z,38.07
2019-03-26T16:26:20.816Z,39.30
2019-03-26T16:28:51.539Z,41.10
2019-03-26T16:31:22.139Z,44.40
2019-03-26T16:33:54.110Z,47.07
2019-03-26T16:36:26.083Z,50.77
2019-03-26T16:38:56.607Z,44.97
2019-03-26T16:41:27.962Z,43.30
2019-03-26T16:43:59.142Z,48.00
2019-03-26T16:46:30.766Z,43.13
2019-03-26T16:49:01.654Z,47.53
2019-03-26T16:51:32.250Z,44.40
2019-03-26T16:54:07.446Z,56.60
2019-03-26T16:56:37.893Z,54.87
2019-03-26T16:59:08.242Z,64.53
2019-03-26T17:01:38.527Z,59.23
2019-03-26T17:04:08.814Z,55.43
2019-03-26T17:06:44.278Z,48.47
2019-03-26T17:09:23.939Z,47.10
2019-03-26T17:12:03.041Z,56.83
2019-03-26T17:14:28.567Z,52.43
2019-03-26T17:17:02.931Z,52.70
2019-03-26T17:19:35.262Z,50.67
2019-03-26T17:22:11.285Z,53.43
2019-03-26T17:24:42.193Z,54.07
2019-03-26T17:27:18.796Z,46.23
2019-03-26T17:29:51.593Z,47.93
2019-03-26T17:32:23.674Z,53.43
2019-03-26T17:35:17.658Z,50.23
2019-03-26T17:37:59.090Z,51.97
2019-03-26T17:40:23.176Z,47.53
2019-03-26T17:43:01.105Z,49.97
2019-03-26T17:45:31.741Z,56.73
2019-03-26T17:48:10.745Z,54.23
2019-03-26T17:50:44.567Z,56.83
2019-03-26T17:53:22.191Z,48.97
2019-03-26T17:55:58.309Z,49.40
2019-03-26T17:58:34.456Z,48.73
2019-03-26T18:01:17.330Z,49.30
2019-03-26T18:03:51.412Z,47.60
2019-03-26T18:06:23.887Z,50.67
2019-03-26T18:08:58.974Z,46.57
2019-03-26T18:11:33.489Z,50.87
2019-03-26T18:14:03.774Z,53.47
2019-03-26T18:16:34.611Z,49.17
2019-03-26T18:19:09.219Z,56.53
2019-03-26T18:21:51.847Z,46.37
2019-03-26T18:24:20.459Z,54.53
2019-03-26T18:26:52.369Z,51.27
2019-03-26T18:29:23.115Z,45.80
2019-03-26T18:31:53.644Z,45.47
2019-03-26T18:34:29.312Z,48.20
2019-03-26T18:37:01.533Z,47.40
2019-03-26T18:39:32.205Z,45.23
2019-03-26T18:42:02.836Z,42.23
2019-03-26T18:44:33.324Z,40.47
2019-03-26T18:47:03.995Z,40.73
2019-03-26T18:49:34.580Z,45.70
2019-03-26T18:52:04.997Z,43.07
2019-03-26T18:54:42.555Z,36.93
2019-03-26T18:57:24.689Z,40.50
2019-03-26T19:00:02.819Z,35.53
2019-03-26T19:02:40.680Z,36.60
2019-03-26T19:05:11.064Z,36.20
2019-03-26T19:07:42.939Z,44.30
2019-03-26T19:10:28.424Z,39.57
2019-03-26T19:13:02.113Z,39.07
2019-03-26T19:15:34.237Z,35.13
2019-03-26T19:18:06.521Z,40.97
2019-03-26T19:20:37.019Z,35.13
2019-03-26T19:23:08.521Z,39.43
2019-03-26T19:25:40.011Z,42.37
2019-03-26T19:28:10.534Z,48.37
2019-03-26T19:30:42.591Z,37.97
2019-03-26T19:33:19.029Z,39.63
2019-03-26T19:35:53.613Z,45.83
2019-03-26T19:38:27.496Z,40.63
2019-03-26T19:40:59.221Z,44.73
2019-03-26T19:43:31.300Z,39.90
2019-03-26T19:46:06.023Z,43.30
2019-03-26T19:48:39.966Z,49.43
2019-03-26T19:51:11.821Z,46.30
2019-03-26T19:53:57.458Z,44.20
2019-03-26T19:56:16.262Z,48.07
2019-03-26T19:58:52.043Z,42.93
2019-03-26T20:01:24.459Z,55.27
2019-03-26T20:03:58.184Z,56.77
2019-03-26T20:06:31.308Z,65.70
2019-03-26T20:09:06.715Z,68.10
2019-03-26T20:11:41.769Z,62.77
2019-03-26T20:14:12.334Z,50.83
2019-03-26T20:16:43.246Z,51.27
2019-03-26T20:19:13.757Z,55.30
2019-03-26T20:21:44.147Z,36.67
2019-03-26T20:24:14.622Z,40.93
2019-03-26T20:26:57.833Z,52.43
2019-03-26T20:29:28.328Z,45.13
2019-03-26T20:32:01.542Z,48.50
2019-03-26T20:34:31.730Z,45.87
2019-03-26T20:37:04.406Z,38.17
2019-03-26T20:39:34.848Z,46.13
2019-03-26T20:42:05.487Z,41.13
2019-03-26T20:44:35.985Z,46.27
2019-03-26T20:47:06.369Z,44.30
2019-03-26T20:49:36.844Z,37.20
2019-03-26T20:52:07.270Z,35.63
2019-03-26T20:54:37.871Z,39.80
2019-03-26T20:57:08.672Z,35.13
2019-03-26T20:59:39.105Z,38.07
2019-03-26T21:02:09.594Z,41.03
2019-03-26T21:04:40.561Z,44.27
2019-03-26T21:07:13.447Z,36.33
2019-03-26T21:09:44.138Z,38.60
2019-03-26T21:12:14.645Z,46.70
2019-03-26T21:14:45.088Z,38.40
2019-03-26T21:17:15.270Z,36.03
2019-03-26T21:19:45.784Z,40.90
2019-03-26T21:22:18.056Z,41.47
2019-03-26T21:24:48.587Z,37.97
2019-03-26T21:27:19.131Z,40.70
2019-03-26T21:29:49.681Z,39.13
2019-03-26T21:32:20.128Z,43.63
2019-03-26T21:34:50.672Z,38.03
2019-03-26T21:37:21.383Z,43.37
2019-03-26T21:39:51.793Z,46.67
2019-03-26T21:42:22.172Z,39.37
2019-03-26T21:44:52.714Z,38.47
2019-03-26T21:47:22.887Z,43.27
2019-03-26T21:49:53.240Z,47.23
2019-03-26T21:52:23.572Z,40.23
2019-03-26T21:54:53.868Z,41.43
2019-03-26T21:57:24.143Z,41.57
2019-03-26T21:59:54.426Z,42.20
2019-03-26T22:02:24.925Z,50.33
2019-03-26T22:04:55.279Z,37.87
2019-03-26T22:07:25.508Z,36.03
2019-03-26T22:09:55.943Z,43.67
2019-03-26T22:12:26.234Z,35.57
2019-03-26T22:14:56.627Z,34.97
2019-03-26T22:17:27.941Z,33.17
2019-03-26T22:19:58.234Z,36.13
2019-03-26T22:22:28.611Z,35.90
2019-03-26T22:24:59.002Z,35.97
2019-03-26T22:27:29.270Z,32.87
2019-03-26T22:29:59.568Z,39.43
2019-03-26T22:32:29.911Z,33.00
2019-03-26T22:35:00.353Z,36.60
2019-03-26T22:37:30.792Z,32.80
2019-03-26T22:40:01.292Z,40.53
2019-03-26T22:42:31.543Z,34.60
2019-03-26T22:45:01.992Z,34.43
2019-03-26T22:47:32.375Z,37.43
2019-03-26T22:50:02.764Z,42.23
2019-03-26T22:52:33.293Z,38.60
2019-03-26T22:55:04.740Z,47.30
2019-03-26T22:57:35.078Z,41.17
2019-03-26T23:00:14.463Z,37.93
2019-03-26T23:02:44.820Z,38.20
2019-03-26T23:05:15.590Z,39.60
2019-03-26T23:07:45.899Z,37.53
2019-03-26T23:10:17.751Z,37.07
2019-03-26T23:12:48.280Z,43.13
2019-03-26T23:15:23.569Z,38.13
2019-03-26T23:17:54.429Z,39.33
2019-03-26T23:20:27.408Z,47.57
2019-03-26T23:22:57.729Z,45.70
2019-03-26T23:25:28.209Z,48.00
2019-03-26T23:27:58.513Z,45.13
2019-03-26T23:30:30.550Z,45.37
2019-03-26T23:33:00.851Z,47.90
2019-03-26T23:35:31.279Z,45.43
2019-03-26T23:38:01.557Z,51.33
2019-03-26T23:40:31.764Z,44.00
2019-03-26T23:43:02.033Z,44.00
2019-03-26T23:45:32.409Z,44.10
2019-03-26T23:48:02.726Z,47.13
2019-03-26T23:50:33.239Z,41.80
2019-03-26T23:53:03.573Z,44.77
2019-03-26T23:55:33.931Z,46.57
2019-03-26T23:58:05.414Z,49.03
